createdAt,value
2023-05-15T00:04:23.230Z,100596.56
2023-05-15T00:09:24.922Z,100589.81
2023-05-15T00:14:26.722Z,100587.16
2023-05-15T00:19:29.718Z,100591.91
2023-05-15T00:24:31.413Z,100580.53
2023-05-15T00:29:33.094Z,100575.31
2023-05-15T00:34:36.438Z,100565.69
2023-05-15T00:39:38.774Z,100564.16
2023-05-15T00:44:41.096Z,100556.50
2023-05-15T00:49:44.415Z,100560.78
2023-05-15T00:54:46.193Z,100563.28
2023-05-15T00:59:48.006Z,100563.63
2023-05-15T01:04:51.137Z,100554.38
2023-05-15T01:09:52.821Z,100550.22
2023-05-15T01:14:54.558Z,100550.25
2023-05-15T01:19:57.887Z,100551.47
2023-05-15T01:25:16.441Z,100546.00
2023-05-15T01:30:22.276Z,100542.94
2023-05-15T01:35:27.891Z,100539.28
2023-05-15T01:40:29.835Z,100539.22
2023-05-15T01:45:32.912Z,100538.59
2023-05-15T01:50:34.922Z,100528.69
2023-05-15T01:55:36.828Z,100532.59
2023-05-15T02:00:39.828Z,100537.56
2023-05-15T02:05:41.657Z,100532.91
2023-05-15T02:10:43.629Z,100533.16
2023-05-15T02:15:46.782Z,100521.34
2023-05-15T02:20:48.705Z,100520.25
2023-05-15T02:25:58.633Z,100513.16
2023-05-15T02:31:05.661Z,100513.94
2023-05-15T02:36:09.057Z,100513.06
2023-05-15T02:41:10.952Z,100508.56
2023-05-15T02:46:14.731Z,100504.13
2023-05-15T02:51:16.503Z,100498.31
2023-05-15T02:56:18.208Z,100498.22
2023-05-15T03:01:21.495Z,100499.16
2023-05-15T03:06:23.352Z,100491.97
2023-05-15T03:11:25.245Z,100495.38
2023-05-15T03:16:28.400Z,100488.41
2023-05-15T03:21:30.143Z,100486.53
2023-05-15T03:26:31.821Z,100482.56
2023-05-15T03:31:34.923Z,100476.44
2023-05-15T03:36:36.713Z,100473.97
2023-05-15T03:41:38.388Z,100477.13
2023-05-15T03:46:41.457Z,100482.25
2023-05-15T03:51:47.180Z,100472.78
2023-05-15T03:56:49.347Z,100465.94
2023-05-15T04:02:03.428Z,100465.88
2023-05-15T04:07:07.417Z,100458.03
2023-05-15T04:12:09.347Z,100466.91
2023-05-15T04:17:12.320Z,100470.16
2023-05-15T04:22:14.035Z,100468.13
2023-05-15T04:27:15.798Z,100458.25
2023-05-15T04:32:18.978Z,100461.81
2023-05-15T04:37:20.647Z,100458.03
2023-05-15T04:42:22.388Z,100459.53
2023-05-15T04:47:25.572Z,100463.25
2023-05-15T04:52:27.243Z,100449.09
2023-05-15T04:57:29.453Z,100457.47
2023-05-15T05:02:32.561Z,100452.66
2023-05-15T05:07:34.237Z,100451.09
2023-05-15T05:12:35.959Z,100454.16
2023-05-15T05:17:38.996Z,100451.25
2023-05-15T05:22:40.845Z,100453.88
2023-05-15T05:27:43.044Z,100447.78
2023-05-15T05:32:46.184Z,100440.31
2023-05-15T05:37:47.906Z,100437.22
2023-05-15T05:42:49.590Z,100443.28
2023-05-15T05:47:52.694Z,100453.25
2023-05-15T05:52:54.359Z,100452.31
2023-05-15T05:57:56.050Z,100442.31
2023-05-15T06:02:59.715Z,100440.75
2023-05-15T06:08:04.013Z,100437.28
2023-05-15T06:13:05.934Z,100438.06
2023-05-15T06:18:09.023Z,100431.59
2023-05-15T06:23:10.764Z,100437.41
2023-05-15T06:28:12.391Z,100431.91
2023-05-15T06:33:15.399Z,100424.59
2023-05-15T06:38:17.103Z,100417.97
2023-05-15T06:43:18.835Z,100421.59
2023-05-15T06:48:21.830Z,100419.06
2023-05-15T06:53:23.570Z,100414.91
2023-05-15T06:58:25.312Z,100408.75
2023-05-15T07:03:28.321Z,100414.59
2023-05-15T07:08:30.002Z,100413.19
2023-05-15T07:13:31.664Z,100410.28
2023-05-15T07:18:34.743Z,100405.03
2023-05-15T07:23:36.523Z,100398.03
2023-05-15T07:28:38.247Z,100392.25
2023-05-15T07:33:41.213Z,100396.28
2023-05-15T07:38:42.873Z,100396.13
2023-05-15T07:43:44.602Z,100407.28
2023-05-15T07:48:47.592Z,100403.84
2023-05-15T07:53:49.305Z,100399.88
2023-05-15T07:58:51.010Z,100397.25
2023-05-15T08:03:54.078Z,100390.75
2023-05-15T08:08:55.794Z,100392.63
2023-05-15T08:13:57.518Z,100379.78
2023-05-15T08:19:04.650Z,100377.16
2023-05-15T08:24:06.823Z,100364.38
2023-05-15T08:29:08.521Z,100363.16
2023-05-15T08:34:11.521Z,100369.09
2023-05-15T08:39:13.208Z,100359.69
2023-05-15T08:44:15.036Z,100355.00
2023-05-15T08:49:21.743Z,100343.88
2023-05-15T08:54:23.411Z,100333.84
2023-05-15T08:59:25.087Z,100330.31
2023-05-15T09:04:28.621Z,100322.75
2023-05-15T09:09:30.796Z,100314.50
2023-05-15T09:14:32.634Z,100307.41
2023-05-15T09:19:35.840Z,100306.22
2023-05-15T09:24:37.831Z,100297.28
2023-05-15T09:29:39.871Z,100300.16
2023-05-15T09:34:43.984Z,100292.69
2023-05-15T09:39:46.165Z,100291.47
2023-05-15T09:44:47.840Z,100288.56
2023-05-15T09:49:50.953Z,100282.25
2023-05-15T09:54:54.102Z,100281.66
2023-05-15T09:59:55.763Z,100270.00
2023-05-15T10:04:58.938Z,100270.38
2023-05-15T10:10:01.047Z,100265.53
2023-05-15T10:15:02.951Z,100262.97
2023-05-15T10:20:07.420Z,100263.38
2023-05-15T10:25:12.996Z,100263.13
2023-05-15T10:30:15.644Z,100252.66
2023-05-15T10:35:18.852Z,100260.50
2023-05-15T10:40:20.534Z,100262.38
2023-05-15T10:45:22.382Z,100271.66
2023-05-15T10:50:25.679Z,100258.84
2023-05-15T10:55:27.589Z,100259.41
2023-05-15T11:00:31.253Z,100253.34
2023-05-15T11:05:49.783Z,100246.75
2023-05-15T11:10:51.916Z,100247.47
2023-05-15T11:15:53.745Z,100249.91
2023-05-15T11:21:08.917Z,100247.63
2023-05-15T11:26:12.395Z,100248.22
2023-05-15T11:31:14.244Z,100244.78
2023-05-15T11:36:18.393Z,100243.97
2023-05-15T11:41:21.606Z,100236.41
2023-05-15T11:46:23.399Z,100230.50
2023-05-15T11:51:26.890Z,100229.38
2023-05-15T11:56:28.893Z,100229.22
2023-05-15T12:01:39.164Z,100230.94
2023-05-15T12:06:42.341Z,100230.00
2023-05-15T12:11:49.147Z,100229.13
2023-05-15T12:16:51.594Z,100229.53
2023-05-15T12:21:54.639Z,100226.34
2023-05-15T12:26:57.482Z,100216.66
2023-05-15T12:31:59.524Z,100217.69
2023-05-15T12:37:02.624Z,100223.13
2023-05-15T12:42:04.692Z,100222.16
2023-05-15T12:47:06.379Z,100214.16
2023-05-15T12:52:10.460Z,100223.38
2023-05-15T12:57:12.644Z,100218.09
2023-05-15T13:02:14.390Z,100220.56
2023-05-15T13:07:17.390Z,100217.88
2023-05-15T13:12:19.129Z,100211.88
2023-05-15T13:17:21.862Z,100200.41
2023-05-15T13:22:24.942Z,100194.50
2023-05-15T13:27:27.134Z,100204.03
2023-05-15T13:32:28.897Z,100194.13
2023-05-15T13:37:32.054Z,100194.69
2023-05-15T13:42:33.724Z,100190.03
2023-05-15T13:47:35.584Z,100187.44
2023-05-15T13:52:38.953Z,100192.28
2023-05-15T13:57:41.132Z,100191.84
2023-05-15T14:02:43.488Z,100193.31
2023-05-15T14:07:46.691Z,100190.16
2023-05-15T14:12:48.361Z,100183.91
2023-05-15T14:17:50.585Z,100188.41
2023-05-15T14:22:53.878Z,100175.91
2023-05-15T14:27:55.801Z,100177.50
2023-05-15T14:32:57.530Z,100170.78
2023-05-15T14:38:00.640Z,100164.69
2023-05-15T14:43:02.296Z,100190.41
2023-05-15T14:48:04.339Z,100181.13
2023-05-15T14:53:07.415Z,100190.56
2023-05-15T14:58:11.224Z,100184.59
2023-05-15T15:03:12.955Z,100191.91
2023-05-15T15:08:16.016Z,100194.66
2023-05-15T15:13:17.696Z,100210.44
2023-05-15T15:18:20.931Z,100208.75
2023-05-15T15:23:24.376Z,100213.81
2023-05-15T15:28:26.423Z,100214.56
2023-05-15T15:33:28.185Z,100221.78
2023-05-15T15:38:31.244Z,100219.22
2023-05-15T15:43:32.913Z,100222.13
2023-05-15T15:48:34.542Z,100206.56
2023-05-15T15:53:37.930Z,100211.53
2023-05-15T15:58:39.598Z,100208.84
2023-05-15T16:03:41.350Z,100218.13
2023-05-15T16:08:44.379Z,100205.50
2023-05-15T16:13:46.053Z,100207.09
2023-05-15T16:18:47.820Z,100211.09
2023-05-15T16:23:51.113Z,100207.03
2023-05-15T16:28:52.892Z,100215.50
2023-05-15T16:33:54.658Z,100215.44
2023-05-15T16:38:57.734Z,100218.66
2023-05-15T16:43:59.410Z,100225.03
2023-05-15T16:49:01.145Z,100239.44
2023-05-15T16:54:04.556Z,100238.06
2023-05-15T16:59:06.374Z,100250.63
2023-05-15T17:04:08.196Z,100253.16
2023-05-15T17:09:11.646Z,100258.28
2023-05-15T17:14:13.483Z,100252.88
2023-05-15T17:19:15.222Z,100252.44
2023-05-15T17:24:18.370Z,100254.72
2023-05-15T17:29:20.021Z,100260.25
2023-05-15T17:34:21.698Z,100277.63
2023-05-15T17:39:24.936Z,100283.56
2023-05-15T17:44:29.540Z,100291.69
2023-05-15T17:49:31.233Z,100289.94
2023-05-15T17:54:34.479Z,100293.22
2023-05-15T17:59:36.162Z,100297.78
2023-05-15T18:04:37.844Z,100309.59
2023-05-15T18:09:40.918Z,100309.19
2023-05-15T18:14:42.576Z,100321.22
2023-05-15T18:19:44.803Z,100330.59
2023-05-15T18:24:47.893Z,100339.38
2023-05-15T18:29:49.675Z,100348.00
2023-05-15T18:34:51.347Z,100359.09
2023-05-15T18:39:58.617Z,100363.56
2023-05-15T18:45:00.280Z,100366.16
2023-05-15T18:50:02.086Z,100367.53
2023-05-15T18:55:06.717Z,100380.88
2023-05-15T19:00:09.231Z,100378.63
2023-05-15T19:05:11.199Z,100388.88
2023-05-15T19:10:14.463Z,100393.50
2023-05-15T19:15:17.952Z,100391.38
2023-05-15T19:20:20.226Z,100397.47
2023-05-15T19:25:23.714Z,100411.00
2023-05-15T19:30:25.549Z,100410.50
2023-05-15T19:35:27.503Z,100417.97
2023-05-15T19:40:30.629Z,100415.97
2023-05-15T19:45:32.390Z,100420.91
2023-05-15T19:50:34.119Z,100415.56
2023-05-15T19:55:37.222Z,100415.41
2023-05-15T20:00:39.875Z,100419.44
2023-05-15T20:05:41.644Z,100417.25
2023-05-15T20:10:44.708Z,100427.34
2023-05-15T20:15:46.568Z,100431.88
2023-05-15T20:20:48.322Z,100445.81
2023-05-15T20:25:51.612Z,100448.75
2023-05-15T20:30:56.506Z,100461.75
2023-05-15T20:35:58.523Z,100472.19
2023-05-15T20:41:01.638Z,100475.59
2023-05-15T20:46:03.374Z,100482.78
2023-05-15T20:51:05.418Z,100487.88
2023-05-15T20:56:08.709Z,100486.84
2023-05-15T21:01:10.485Z,100495.50
2023-05-15T21:06:13.535Z,100494.66
2023-05-15T21:11:16.821Z,100500.97
2023-05-15T21:16:18.671Z,100510.69
2023-05-15T21:21:20.557Z,100518.75
2023-05-15T21:26:23.690Z,100513.41
2023-05-15T21:31:26.381Z,100529.84
2023-05-15T21:36:28.126Z,100529.78
2023-05-15T21:41:31.181Z,100531.84
2023-05-15T21:46:33.013Z,100531.03
2023-05-15T21:51:34.806Z,100539.91
2023-05-15T21:56:37.877Z,100543.00
2023-05-15T22:01:40.882Z,100550.00
2023-05-15T22:06:43.685Z,100555.78
2023-05-15T22:11:46.776Z,100559.00
2023-05-15T22:16:48.586Z,100563.97
2023-05-15T22:21:50.552Z,100571.28
2023-05-15T22:26:53.636Z,100574.53
2023-05-15T22:31:55.948Z,100579.91
2023-05-15T22:36:57.690Z,100590.69
2023-05-15T22:42:00.782Z,100592.47
2023-05-15T22:47:02.487Z,100590.34
2023-05-15T22:52:04.916Z,100596.13
2023-05-15T22:57:08.737Z,100595.69
2023-05-15T23:02:10.507Z,100602.28
2023-05-15T23:07:12.236Z,100601.63
2023-05-15T23:12:15.334Z,100592.63
2023-05-15T23:17:16.993Z,100599.03
2023-05-15T23:22:18.703Z,100605.91
2023-05-15T23:27:21.758Z,100608.50
2023-05-15T23:32:23.445Z,100609.28
2023-05-15T23:37:25.798Z,100611.84
2023-05-15T23:42:29.782Z,100607.56
2023-05-15T23:47:31.569Z,100601.69
2023-05-15T23:52:33.253Z,100612.00
2023-05-15T23:57:36.411Z,100617.41
